createdAt,value
2023-04-05T00:01:12.292Z,50.93
2023-04-05T00:03:15.126Z,50.41
2023-04-05T00:05:29.251Z,50.66
2023-04-05T00:07:34.130Z,51.05
2023-04-05T00:09:36.762Z,50.57
2023-04-05T00:11:39.318Z,50.83
2023-04-05T00:13:41.846Z,51.08
2023-04-05T00:15:44.626Z,50.55
2023-04-05T00:17:48.795Z,50.90
2023-04-05T00:19:57.828Z,50.96
2023-04-05T00:22:00.538Z,51.00
2023-04-05T00:24:03.478Z,50.83
2023-04-05T00:26:06.124Z,51.01
2023-04-05T00:28:08.712Z,51.13
2023-04-05T00:30:11.941Z,51.10
2023-04-05T00:32:14.552Z,51.39
2023-04-05T00:34:18.456Z,51.51
2023-04-05T00:36:21.804Z,51.68
2023-04-05T00:38:24.569Z,51.64
2023-04-05T00:40:27.571Z,51.63
2023-04-05T00:42:30.264Z,51.73
2023-04-05T00:44:34.738Z,52.28
2023-04-05T00:46:37.594Z,51.94
2023-04-05T00:48:40.799Z,51.96
2023-04-05T00:50:44.783Z,51.65
2023-04-05T00:52:48.018Z,51.36
2023-04-05T00:54:52.096Z,51.45
2023-04-05T00:56:56.748Z,51.33
2023-04-05T00:58:59.320Z,51.51
2023-04-05T01:01:06.604Z,52.00
2023-04-05T01:03:11.232Z,51.84
2023-04-05T01:05:26.570Z,51.86
2023-04-05T01:07:39.177Z,51.85
2023-04-05T01:09:46.852Z,51.88
2023-04-05T01:11:50.508Z,51.93
2023-04-05T01:13:59.677Z,52.13
2023-04-05T01:16:02.330Z,52.25
2023-04-05T01:18:05.999Z,52.29
2023-04-05T01:20:11.855Z,52.14
2023-04-05T01:22:43.661Z,51.72
2023-04-05T01:25:06.727Z,51.76
2023-04-05T01:27:15.408Z,51.75
2023-04-05T01:29:45.633Z,51.74
2023-04-05T01:31:52.274Z,51.57
2023-04-05T01:34:00.497Z,51.74
2023-04-05T01:36:08.463Z,51.62
2023-04-05T01:38:14.856Z,52.09
2023-04-05T01:40:17.985Z,52.29
2023-04-05T01:42:26.036Z,52.25
2023-04-05T01:44:28.580Z,52.57
2023-04-05T01:46:32.588Z,51.57
2023-04-05T01:48:35.262Z,51.93
2023-04-05T01:50:37.856Z,51.75
2023-04-05T01:52:40.404Z,52.17
2023-04-05T01:54:42.986Z,51.96
2023-04-05T01:56:46.098Z,52.31
2023-04-05T01:58:48.714Z,52.48
2023-04-05T02:00:55.051Z,52.24
2023-04-05T02:02:59.246Z,52.39
2023-04-05T02:05:01.946Z,52.40
2023-04-05T02:07:04.487Z,52.42
2023-04-05T02:09:07.022Z,52.83
2023-04-05T02:11:09.593Z,53.10
2023-04-05T02:13:13.649Z,52.97
2023-04-05T02:15:16.665Z,52.44
2023-04-05T02:17:19.704Z,52.05
2023-04-05T02:19:25.950Z,52.98
2023-04-05T02:21:28.628Z,52.50
2023-04-05T02:23:32.066Z,52.59
2023-04-05T02:25:34.637Z,52.61
2023-04-05T02:27:37.445Z,52.69
2023-04-05T02:29:40.200Z,53.24
2023-04-05T02:31:42.865Z,53.00
2023-04-05T02:33:45.443Z,53.14
2023-04-05T02:35:51.631Z,52.86
2023-04-05T02:37:54.289Z,53.31
2023-04-05T02:39:56.832Z,53.59
2023-04-05T02:41:59.889Z,53.51
2023-04-05T02:44:02.476Z,53.45
2023-04-05T02:46:05.237Z,53.53
2023-04-05T02:48:07.902Z,53.40
2023-04-05T02:50:10.678Z,53.16
2023-04-05T02:52:14.592Z,53.94
2023-04-05T02:54:17.151Z,53.87
2023-04-05T02:56:21.968Z,53.41
2023-04-05T02:58:24.937Z,53.75
2023-04-05T03:00:27.876Z,53.37
2023-04-05T03:02:30.548Z,53.87
2023-04-05T03:04:34.377Z,53.89
2023-04-05T03:06:36.966Z,53.98
2023-04-05T03:08:43.969Z,53.28
2023-04-05T03:10:47.182Z,53.73
2023-04-05T03:12:51.419Z,53.86
2023-04-05T03:14:54.065Z,53.22
2023-04-05T03:16:56.730Z,53.96
2023-04-05T03:18:59.932Z,53.43
2023-04-05T03:21:04.281Z,53.73
2023-04-05T03:23:08.984Z,53.72
2023-04-05T03:25:12.964Z,53.17
2023-04-05T03:27:15.612Z,53.74
2023-04-05T03:29:18.647Z,53.89
2023-04-05T03:31:21.521Z,53.73
2023-04-05T03:33:24.262Z,53.71
2023-04-05T03:35:26.868Z,54.38
2023-04-05T03:37:29.477Z,54.15
2023-04-05T03:39:32.085Z,54.65
2023-04-05T03:41:36.054Z,54.38
2023-04-05T03:43:38.749Z,54.08
2023-04-05T03:45:41.498Z,54.32
2023-04-05T03:47:44.522Z,54.07
2023-04-05T03:49:47.109Z,54.53
2023-04-05T03:51:49.632Z,54.33
2023-04-05T03:53:52.665Z,55.17
2023-04-05T03:55:55.722Z,55.29
2023-04-05T03:57:59.650Z,55.01
2023-04-05T04:00:02.206Z,55.19
2023-04-05T04:02:04.800Z,54.93
2023-04-05T04:04:07.396Z,54.37
2023-04-05T04:06:10.074Z,55.05
2023-04-05T04:08:13.236Z,55.33
2023-04-05T04:10:18.252Z,54.86
2023-04-05T04:12:20.930Z,55.54
2023-04-05T04:14:24.984Z,55.65
2023-04-05T04:16:28.805Z,55.35
2023-04-05T04:18:31.662Z,55.60
2023-04-05T04:20:34.424Z,55.97
2023-04-05T04:22:38.706Z,55.39
2023-04-05T04:24:41.384Z,55.30
2023-04-05T04:26:43.951Z,55.30
2023-04-05T04:28:46.624Z,55.70
2023-04-05T04:30:50.519Z,55.82
2023-04-05T04:32:54.566Z,55.57
2023-04-05T04:34:58.705Z,55.61
2023-04-05T04:37:01.619Z,55.77
2023-04-05T04:39:06.091Z,55.83
2023-04-05T04:41:09.006Z,56.21
2023-04-05T04:43:17.008Z,55.47
2023-04-05T04:45:20.641Z,55.55
2023-04-05T04:47:24.618Z,55.68
2023-04-05T04:49:28.308Z,55.35
2023-04-05T04:51:30.866Z,55.27
2023-04-05T04:53:33.399Z,55.12
2023-04-05T04:55:36.249Z,55.11
2023-04-05T04:57:38.788Z,55.50
2023-04-05T04:59:43.507Z,55.41
2023-04-05T05:01:46.800Z,55.19
2023-04-05T05:03:50.814Z,55.28
2023-04-05T05:05:53.750Z,54.92
2023-04-05T05:07:56.560Z,55.48
2023-04-05T05:09:59.169Z,55.11
2023-04-05T05:12:01.755Z,55.44
2023-04-05T05:14:04.335Z,55.56
2023-04-05T05:16:09.433Z,55.62
2023-04-05T05:18:12.422Z,55.52
2023-04-05T05:20:16.345Z,55.67
2023-04-05T05:22:18.928Z,55.92
2023-04-05T05:24:22.313Z,56.11
2023-04-05T05:26:24.992Z,56.25
2023-04-05T05:28:28.223Z,55.97
2023-04-05T05:30:31.059Z,56.00
2023-04-05T05:32:33.640Z,56.10
2023-04-05T05:34:36.559Z,55.89
2023-04-05T05:36:41.026Z,56.06
2023-04-05T05:38:44.042Z,56.01
2023-04-05T05:40:46.581Z,55.70
2023-04-05T05:42:49.133Z,56.02
2023-04-05T05:44:51.701Z,55.83
2023-04-05T05:46:54.298Z,56.15
2023-04-05T05:48:56.845Z,56.21
2023-04-05T05:51:01.696Z,56.50
2023-04-05T05:53:05.715Z,56.34
2023-04-05T05:55:09.330Z,56.08
2023-04-05T05:57:11.889Z,56.73
2023-04-05T05:59:14.750Z,56.82
2023-04-05T06:01:17.380Z,56.18
2023-04-05T06:03:21.620Z,56.50
2023-04-05T06:05:24.319Z,56.72
2023-04-05T06:07:26.863Z,56.90
2023-04-05T06:09:30.899Z,57.25
2023-04-05T06:11:34.298Z,56.93
2023-04-05T06:13:38.006Z,57.51
2023-04-05T06:15:40.595Z,56.84
2023-04-05T06:17:43.587Z,56.82
2023-04-05T06:19:46.147Z,56.89
2023-04-05T06:21:48.681Z,56.86
2023-04-05T06:23:51.267Z,56.46
2023-04-05T06:25:56.557Z,55.93
2023-04-05T06:27:59.152Z,56.23
2023-04-05T06:30:01.728Z,55.94
2023-04-05T06:32:04.463Z,56.39
2023-04-05T06:34:07.097Z,55.90
2023-04-05T06:36:10.462Z,55.58
2023-04-05T06:38:13.041Z,55.39
2023-04-05T06:40:15.855Z,55.80
2023-04-05T06:42:21.905Z,55.74
2023-04-05T06:44:24.634Z,56.25
2023-04-05T06:46:27.475Z,56.76
2023-04-05T06:48:30.138Z,56.91
2023-04-05T06:50:32.671Z,56.65
2023-04-05T06:52:35.839Z,57.04
2023-04-05T06:54:38.795Z,56.78
2023-04-05T06:56:41.534Z,56.92
2023-04-05T06:58:45.865Z,56.83
2023-04-05T07:00:48.701Z,56.65
2023-04-05T07:02:51.271Z,57.22
2023-04-05T07:04:53.803Z,57.04
2023-04-05T07:06:56.620Z,56.74
2023-04-05T07:08:59.156Z,56.89
2023-04-05T07:11:01.723Z,56.80
2023-04-05T07:13:04.264Z,56.24
2023-04-05T07:15:09.468Z,56.33
2023-04-05T07:17:12.117Z,55.89
2023-04-05T07:19:15.250Z,56.09
2023-04-05T07:21:18.063Z,55.77
2023-04-05T07:23:21.822Z,55.90
2023-04-05T07:25:25.858Z,55.33
2023-04-05T07:27:28.408Z,54.91
2023-04-05T07:29:31.110Z,54.84
2023-04-05T07:31:35.294Z,55.35
2023-04-05T07:33:37.950Z,55.00
2023-04-05T07:35:42.991Z,55.72
2023-04-05T07:37:45.637Z,55.63
2023-04-05T07:39:48.174Z,55.02
2023-04-05T07:41:51.541Z,55.47
2023-04-05T07:43:54.106Z,54.94
2023-04-05T07:46:04.835Z,54.85
2023-04-05T07:48:08.868Z,55.15
2023-04-05T07:50:14.941Z,55.63
2023-04-05T07:52:17.514Z,55.34
2023-04-05T07:54:20.091Z,55.19
2023-04-05T07:56:23.100Z,54.35
2023-04-05T07:58:26.191Z,53.96
2023-04-05T08:00:28.749Z,52.85
2023-04-05T08:02:31.395Z,52.75
2023-04-05T08:04:35.366Z,53.65
2023-04-05T08:06:38.007Z,53.62
2023-04-05T08:08:40.841Z,53.17
2023-04-05T08:10:43.531Z,52.03
2023-04-05T08:12:46.507Z,52.15
2023-04-05T08:14:49.057Z,52.47
2023-04-05T08:16:51.917Z,51.89
2023-04-05T08:18:54.515Z,52.68
2023-04-05T08:20:59.126Z,52.92
2023-04-05T08:23:01.681Z,52.83
2023-04-05T08:25:04.348Z,52.79
2023-04-05T08:27:06.912Z,53.16
2023-04-05T08:29:09.449Z,52.67
2023-04-05T08:31:13.723Z,52.57
2023-04-05T08:33:16.554Z,52.50
2023-04-05T08:35:19.192Z,52.32
2023-04-05T08:37:23.100Z,51.71
2023-04-05T08:39:26.665Z,51.49
2023-04-05T08:41:36.384Z,50.90
2023-04-05T08:43:48.632Z,50.23
2023-04-05T08:45:52.480Z,50.15
2023-04-05T08:47:55.095Z,49.16
2023-04-05T08:49:57.686Z,49.33
2023-04-05T08:52:03.701Z,49.10
2023-04-05T08:54:07.769Z,49.23
2023-04-05T08:56:11.985Z,49.08
2023-04-05T08:58:15.593Z,49.01
2023-04-05T09:00:19.798Z,49.11
2023-04-05T09:02:24.606Z,48.51
2023-04-05T09:04:31.230Z,48.54
2023-04-05T09:06:34.208Z,48.11
2023-04-05T09:08:37.246Z,47.55
2023-04-05T09:10:41.737Z,47.58
2023-04-05T09:12:44.458Z,47.10
2023-04-05T09:14:49.692Z,46.52
2023-04-05T09:16:52.905Z,46.91
2023-04-05T09:18:55.514Z,46.76
2023-04-05T09:21:03.644Z,46.50
2023-04-05T09:23:06.247Z,46.31
2023-04-05T09:25:09.466Z,45.33
2023-04-05T09:27:14.593Z,45.26
2023-04-05T09:29:30.144Z,44.72
2023-04-05T09:31:34.488Z,44.61
2023-04-05T09:33:37.614Z,44.16
2023-04-05T09:35:40.176Z,43.90
2023-04-05T09:37:53.255Z,44.09
2023-04-05T09:40:04.113Z,43.61
2023-04-05T09:42:08.364Z,43.14
2023-04-05T09:44:12.303Z,43.29
2023-04-05T09:46:31.171Z,43.85
2023-04-05T09:48:47.421Z,42.84
2023-04-05T09:50:50.644Z,43.08
2023-04-05T09:53:06.252Z,43.58
2023-04-05T09:55:09.884Z,43.50
2023-04-05T09:57:12.643Z,43.36
2023-04-05T09:59:18.167Z,43.37
2023-04-05T10:01:22.146Z,41.76
2023-04-05T10:03:26.765Z,41.98
2023-04-05T10:05:30.522Z,41.83
2023-04-05T10:07:33.317Z,42.64
2023-04-05T10:09:36.266Z,42.77
2023-04-05T10:11:39.880Z,43.14
2023-04-05T10:13:42.565Z,43.14
2023-04-05T10:15:49.876Z,42.88
2023-04-05T10:18:00.658Z,42.38
2023-04-05T10:20:11.747Z,43.73
2023-04-05T10:22:18.538Z,42.36
2023-04-05T10:24:34.805Z,42.14
2023-04-05T10:26:42.231Z,42.64
2023-04-05T10:28:49.028Z,42.81
2023-04-05T10:30:55.987Z,42.70
2023-04-05T10:33:12.313Z,43.00
2023-04-05T10:35:18.501Z,42.28
2023-04-05T10:37:31.510Z,42.38
2023-04-05T10:39:36.961Z,42.43
2023-04-05T10:41:43.494Z,42.17
2023-04-05T10:43:48.090Z,42.02
2023-04-05T10:45:55.682Z,41.80
2023-04-05T10:48:03.231Z,41.60
2023-04-05T10:50:13.429Z,41.59
2023-04-05T10:52:18.487Z,41.51
2023-04-05T10:54:21.548Z,41.25
2023-04-05T10:56:25.911Z,41.24
2023-04-05T10:58:29.882Z,41.25
2023-04-05T11:00:33.087Z,41.38
2023-04-05T11:02:37.233Z,40.84
2023-04-05T11:04:42.234Z,41.23
2023-04-05T11:09:18.470Z,41.07
2023-04-05T11:11:23.800Z,40.92
2023-04-05T11:13:49.466Z,41.54
2023-04-05T11:16:09.937Z,42.30
2023-04-05T11:18:22.933Z,42.26
2023-04-05T11:20:25.509Z,42.51
2023-04-05T11:22:29.427Z,41.51
2023-04-05T11:24:51.612Z,41.82
2023-04-05T11:26:56.127Z,41.59
2023-04-05T11:28:59.154Z,41.42
2023-04-05T11:31:14.918Z,41.48
2023-04-05T11:33:57.690Z,40.98
2023-04-05T11:36:02.886Z,41.01
2023-04-05T11:38:09.394Z,40.78
2023-04-05T11:40:29.163Z,40.72
2023-04-05T11:42:31.691Z,40.47
2023-04-05T11:44:46.026Z,40.47
2023-04-05T11:46:48.909Z,40.79
2023-04-05T11:48:52.969Z,40.86
2023-04-05T11:50:55.947Z,40.60
2023-04-05T11:53:15.485Z,40.77
2023-04-05T11:55:27.420Z,41.18
2023-04-05T11:57:29.839Z,40.97
2023-04-05T11:59:34.206Z,40.50
2023-04-05T12:01:36.988Z,40.31
2023-04-05T12:03:39.657Z,40.15
2023-04-05T12:05:51.231Z,39.86
2023-04-05T12:07:55.662Z,40.35
2023-04-05T12:10:03.872Z,40.45
2023-04-05T12:12:06.721Z,40.31
2023-04-05T12:14:09.244Z,39.91
2023-04-05T12:16:11.973Z,39.79
2023-04-05T12:18:15.758Z,39.98
2023-04-05T12:20:20.987Z,39.83
2023-04-05T12:22:24.988Z,39.45
2023-04-05T12:24:27.763Z,39.33
2023-04-05T12:26:34.159Z,39.32
2023-04-05T12:28:52.914Z,39.25
2023-04-05T12:30:57.985Z,39.54
2023-04-05T12:33:03.074Z,39.43
2023-04-05T12:35:11.769Z,39.47
2023-04-05T12:37:14.352Z,39.32
2023-04-05T12:39:18.405Z,38.46
2023-04-05T12:41:28.442Z,38.07
2023-04-05T12:43:40.386Z,37.98
2023-04-05T12:45:44.132Z,37.39
2023-04-05T12:47:51.814Z,36.23
2023-04-05T12:49:56.402Z,36.88
2023-04-05T12:52:02.817Z,35.65
2023-04-05T12:54:05.504Z,35.94
2023-04-05T12:56:11.488Z,35.34
2023-04-05T12:58:14.438Z,35.03
2023-04-05T13:00:17.896Z,34.80
2023-04-05T13:02:20.482Z,34.66
2023-04-05T13:04:24.253Z,34.86
2023-04-05T13:06:27.294Z,34.41
2023-04-05T13:08:29.919Z,33.97
2023-04-05T13:10:32.501Z,33.44
2023-04-05T13:12:36.432Z,33.25
2023-04-05T13:14:39.046Z,33.26
2023-04-05T13:16:41.632Z,32.44
2023-04-05T13:18:44.367Z,31.42
2023-04-05T13:20:47.260Z,31.43
2023-04-05T13:22:49.911Z,30.50
2023-04-05T13:24:53.862Z,30.03
2023-04-05T13:26:56.448Z,29.43
2023-04-05T13:29:00.472Z,29.22
2023-04-05T13:31:06.223Z,29.01
2023-04-05T13:33:08.933Z,28.79
2023-04-05T13:35:11.684Z,29.14
2023-04-05T13:37:14.257Z,29.42
2023-04-05T13:39:16.771Z,29.34
2023-04-05T13:41:19.385Z,28.85
2023-04-05T13:43:21.977Z,28.42
2023-04-05T13:45:26.217Z,28.87
2023-04-05T13:47:28.823Z,28.51
2023-04-05T13:49:31.459Z,27.52
2023-04-05T13:51:34.398Z,27.05
2023-04-05T13:53:36.958Z,26.21
2023-04-05T13:55:39.738Z,27.23
2023-04-05T13:57:42.407Z,27.50
2023-04-05T13:59:45.040Z,27.23
2023-04-05T14:01:49.035Z,26.56
2023-04-05T14:03:51.800Z,26.25
2023-04-05T14:05:55.663Z,26.65
2023-04-05T14:07:58.411Z,26.65
2023-04-05T14:10:02.373Z,24.70
2023-04-05T14:12:08.613Z,24.69
2023-04-05T14:14:11.179Z,24.85
2023-04-05T14:16:13.803Z,25.46
2023-04-05T14:18:17.751Z,25.51
2023-04-05T14:20:20.368Z,25.32
2023-04-05T14:22:23.003Z,25.39
2023-04-05T14:24:25.617Z,25.53
2023-04-05T14:26:29.096Z,25.79
2023-04-05T14:28:31.681Z,25.40
2023-04-05T14:30:34.303Z,25.69
2023-04-05T14:32:37.054Z,24.78
2023-04-05T14:34:41.019Z,24.54
2023-04-05T14:36:43.604Z,24.52
2023-04-05T14:38:46.183Z,24.68
2023-04-05T14:40:48.771Z,25.22
2023-04-05T14:42:51.369Z,25.80
2023-04-05T14:44:53.926Z,25.68
2023-04-05T14:46:56.538Z,24.92
2023-04-05T14:48:59.090Z,25.07
2023-04-05T14:51:02.991Z,25.71
2023-04-05T14:53:05.574Z,25.73
2023-04-05T14:55:08.997Z,26.02
2023-04-05T14:57:11.677Z,26.07
2023-04-05T14:59:14.312Z,26.32
2023-04-05T15:01:17.183Z,25.83
2023-04-05T15:03:20.047Z,26.03
2023-04-05T15:05:22.926Z,26.19
2023-04-05T15:07:26.992Z,26.08
2023-04-05T15:09:29.531Z,26.05
2023-04-05T15:11:34.212Z,26.15
2023-04-05T15:13:36.806Z,25.94
2023-04-05T15:15:39.848Z,24.77
2023-04-05T15:17:42.404Z,25.53
2023-04-05T15:19:44.977Z,25.85
2023-04-05T15:21:47.645Z,26.25
2023-04-05T15:23:51.514Z,26.37
2023-04-05T15:25:54.047Z,26.36
2023-04-05T15:27:59.621Z,26.20
2023-04-05T15:30:03.729Z,25.96
2023-04-05T15:32:06.535Z,26.25
2023-04-05T15:34:09.091Z,26.48
2023-04-05T15:36:11.682Z,26.27
2023-04-05T15:38:14.289Z,26.32
2023-04-05T15:40:18.330Z,26.21
2023-04-05T15:42:21.771Z,25.92
2023-04-05T15:44:24.456Z,25.81
2023-04-05T15:46:28.466Z,26.09
2023-04-05T15:48:31.113Z,26.66
2023-04-05T15:50:33.646Z,26.69
2023-04-05T15:52:36.761Z,26.74
2023-04-05T15:54:39.388Z,26.51
2023-04-05T15:56:43.283Z,26.07
2023-04-05T15:58:45.982Z,25.54
2023-04-05T16:00:48.598Z,26.07
2023-04-05T16:02:52.910Z,26.40
2023-04-05T16:04:57.356Z,26.20
2023-04-05T16:06:59.975Z,26.15
2023-04-05T16:09:02.752Z,26.12
2023-04-05T16:11:08.329Z,26.44
2023-04-05T16:13:12.250Z,26.62
2023-04-05T16:15:14.922Z,26.51
2023-04-05T16:17:17.509Z,26.23
2023-04-05T16:19:20.100Z,25.71
2023-04-05T16:21:22.982Z,25.58
2023-04-05T16:23:25.604Z,25.59
2023-04-05T16:25:28.233Z,25.67
2023-04-05T16:27:30.851Z,25.88
2023-04-05T16:29:34.958Z,25.19
2023-04-05T16:31:37.580Z,25.72
2023-04-05T16:33:40.115Z,25.90
2023-04-05T16:35:42.675Z,25.09
2023-04-05T16:37:46.535Z,24.95
2023-04-05T16:39:49.096Z,25.75
2023-04-05T16:41:51.716Z,26.02
2023-04-05T16:43:54.436Z,25.84
2023-04-05T16:45:58.330Z,26.36
2023-04-05T16:48:00.904Z,26.65
2023-04-05T16:50:03.664Z,26.69
2023-04-05T16:52:06.255Z,26.86
2023-04-05T16:54:08.873Z,26.65
2023-04-05T16:56:12.303Z,26.78
2023-04-05T16:58:14.875Z,26.48
2023-04-05T17:00:17.807Z,26.86
2023-04-05T17:02:21.851Z,27.04
2023-04-05T17:04:24.438Z,27.36
2023-04-05T17:06:29.295Z,27.29
2023-04-05T17:08:31.955Z,27.66
2023-04-05T17:10:36.027Z,28.21
2023-04-05T17:12:41.954Z,27.92
2023-04-05T17:14:44.542Z,27.99
2023-04-05T17:16:47.930Z,28.09
2023-04-05T17:18:52.344Z,28.65
2023-04-05T17:20:54.893Z,28.41
2023-04-05T17:22:58.272Z,28.36
2023-04-05T17:25:02.502Z,28.89
2023-04-05T17:27:05.498Z,28.91
2023-04-05T17:29:08.039Z,28.93
2023-04-05T17:31:11.643Z,28.74
2023-04-05T17:33:14.270Z,29.06
2023-04-05T17:35:18.446Z,29.06
2023-04-05T17:37:21.056Z,29.50
2023-04-05T17:39:23.623Z,29.64
2023-04-05T17:41:26.391Z,29.63
2023-04-05T17:43:28.916Z,29.95
2023-04-05T17:45:31.554Z,30.42
2023-04-05T17:47:34.251Z,30.10
2023-04-05T17:49:37.519Z,30.56
2023-04-05T17:51:42.293Z,31.00
2023-04-05T17:53:44.879Z,30.95
2023-04-05T17:55:47.470Z,30.79
2023-04-05T17:57:50.048Z,31.43
2023-04-05T17:59:52.607Z,31.41
2023-04-05T18:01:55.288Z,31.89
2023-04-05T18:03:59.209Z,31.62
2023-04-05T18:06:02.069Z,31.93
2023-04-05T18:08:06.489Z,32.26
2023-04-05T18:10:09.865Z,33.30
2023-04-05T18:12:12.416Z,33.36
2023-04-05T18:14:14.983Z,33.40
2023-04-05T18:16:17.545Z,34.20
2023-04-05T18:18:20.162Z,34.56
2023-04-05T18:20:22.691Z,34.40
2023-04-05T18:22:26.090Z,34.75
2023-04-05T18:24:30.415Z,34.64
2023-04-05T18:26:34.592Z,35.05
2023-04-05T18:28:37.246Z,35.24
2023-04-05T18:30:40.323Z,35.04
2023-04-05T18:32:42.906Z,34.73
2023-04-05T18:34:45.448Z,35.34
2023-04-05T18:36:47.986Z,35.51
2023-04-05T18:38:50.773Z,35.87
2023-04-05T18:41:02.049Z,35.81
2023-04-05T18:43:04.602Z,36.07
2023-04-05T18:45:07.807Z,36.62
2023-04-05T18:47:10.491Z,37.15
2023-04-05T18:49:15.660Z,37.67
2023-04-05T18:51:18.783Z,37.97
2023-04-05T18:53:21.662Z,37.75
2023-04-05T18:55:24.214Z,38.33
2023-04-05T18:57:28.583Z,38.19
2023-04-05T18:59:31.176Z,38.51
2023-04-05T19:01:33.888Z,38.82
2023-04-05T19:03:36.530Z,38.87
2023-04-05T19:05:39.098Z,39.25
2023-04-05T19:07:41.668Z,39.01
2023-04-05T19:09:44.266Z,38.15
2023-04-05T19:11:46.806Z,37.57
2023-04-05T19:13:50.780Z,37.78
2023-04-05T19:15:53.923Z,37.72
2023-04-05T19:17:58.104Z,37.71
2023-04-05T19:20:01.217Z,38.08
2023-04-05T19:22:03.802Z,38.36
2023-04-05T19:24:08.202Z,38.96
2023-04-05T19:26:10.849Z,38.93
2023-04-05T19:28:14.215Z,39.21
2023-04-05T19:30:18.192Z,38.53
2023-04-05T19:32:21.190Z,38.46
2023-04-05T19:34:23.766Z,38.95
2023-04-05T19:36:26.392Z,39.69
2023-04-05T19:38:29.012Z,39.50
2023-04-05T19:40:31.596Z,39.46
2023-04-05T19:42:34.626Z,39.86
2023-04-05T19:44:45.329Z,39.89
2023-04-05T19:46:49.219Z,40.15
2023-04-05T19:48:51.753Z,40.58
2023-04-05T19:50:57.888Z,41.02
2023-04-05T19:53:00.661Z,41.25
2023-04-05T19:55:07.729Z,41.38
2023-04-05T19:57:12.173Z,41.42
2023-04-05T19:59:29.083Z,41.43
2023-04-05T20:01:37.174Z,41.42
2023-04-05T20:03:42.349Z,41.61
2023-04-05T20:06:06.204Z,42.28
2023-04-05T20:08:09.404Z,42.60
2023-04-05T20:10:16.520Z,42.55
2023-04-05T20:12:22.408Z,42.83
2023-04-05T20:14:28.487Z,42.94
2023-04-05T20:16:33.192Z,42.80
2023-04-05T20:18:35.931Z,43.33
2023-04-05T20:20:47.589Z,43.24
2023-04-05T20:22:50.302Z,43.65
2023-04-05T20:24:52.899Z,44.33
2023-04-05T20:26:56.872Z,43.44
2023-04-05T20:29:02.109Z,43.43
2023-04-05T20:31:06.514Z,43.59
2023-04-05T20:33:09.478Z,43.19
2023-04-05T20:35:31.582Z,43.29
2023-04-05T20:37:35.326Z,43.20
2023-04-05T20:41:55.733Z,43.56
2023-04-05T20:43:58.934Z,43.77
2023-04-05T20:46:03.104Z,44.43
2023-04-05T20:48:06.488Z,44.71
2023-04-05T20:50:09.849Z,44.56
2023-04-05T20:52:12.417Z,44.61
2023-04-05T20:54:16.294Z,44.60
2023-04-05T20:56:19.316Z,44.51
2023-04-05T21:00:48.604Z,44.76
2023-04-05T21:02:51.836Z,44.89
2023-04-05T21:04:54.458Z,45.34
2023-04-05T21:06:57.068Z,45.04
2023-04-05T21:08:59.644Z,45.54
2023-04-05T21:11:03.949Z,45.76
2023-04-05T21:13:06.632Z,45.69
2023-04-05T21:19:08.584Z,46.18
2023-04-05T21:21:11.308Z,46.24
2023-04-05T21:23:13.866Z,46.44
2023-04-05T21:25:16.405Z,46.54
2023-04-05T21:27:20.315Z,46.53
2023-04-05T21:29:22.926Z,46.62
2023-04-05T21:31:25.598Z,46.00
2023-04-05T21:42:36.882Z,44.63
2023-04-05T21:44:39.544Z,44.74
2023-04-05T21:46:42.079Z,44.40
2023-04-05T21:48:44.622Z,44.49
2023-04-05T21:50:47.180Z,44.65
2023-04-05T21:52:49.815Z,44.74
2023-04-05T21:54:52.484Z,44.90
2023-04-05T21:56:55.011Z,44.82
2023-04-05T21:58:58.981Z,44.94
2023-04-05T22:01:01.595Z,44.92
2023-04-05T22:03:04.397Z,45.21
2023-04-05T22:05:08.558Z,45.38
2023-04-05T22:07:11.221Z,45.45
2023-04-05T22:09:13.832Z,45.74
2023-04-05T22:11:16.395Z,45.67
2023-04-05T22:13:18.931Z,45.63
2023-04-05T22:15:22.815Z,45.78
2023-04-05T22:17:25.557Z,45.79
2023-04-05T22:19:28.175Z,46.46
2023-04-05T22:21:30.790Z,46.21
2023-04-05T22:23:33.396Z,45.95
2023-04-05T22:25:35.979Z,45.89
2023-04-05T22:27:38.571Z,45.99
2023-04-05T22:29:41.237Z,45.85
2023-04-05T22:31:45.603Z,45.99
2023-04-05T22:33:48.192Z,46.27
2023-04-05T22:35:51.657Z,46.57
2023-04-05T22:37:54.221Z,46.45
2023-04-05T22:39:56.758Z,46.52
2023-04-05T22:41:59.320Z,46.63
2023-04-05T22:44:01.963Z,46.60
2023-04-05T22:46:04.628Z,46.52
2023-04-05T22:48:08.637Z,46.71
2023-04-05T22:50:11.484Z,46.58
2023-04-05T22:52:14.019Z,46.47
2023-04-05T22:54:16.542Z,46.83
2023-04-05T22:56:21.399Z,46.76
2023-04-05T22:58:23.958Z,46.71
2023-04-05T23:00:26.622Z,46.51
2023-04-05T23:02:30.150Z,46.53
2023-04-05T23:04:34.181Z,46.32
2023-04-05T23:06:36.742Z,46.65
2023-04-05T23:08:39.305Z,46.71
2023-04-05T23:10:42.702Z,46.97
2023-04-05T23:12:45.902Z,46.88
2023-04-05T23:14:48.432Z,47.10
2023-04-05T23:16:51.018Z,47.01
2023-04-05T23:18:53.620Z,47.08
2023-04-05T23:20:57.633Z,46.96
2023-04-05T23:23:01.526Z,47.06
2023-04-05T23:25:04.575Z,47.29
2023-04-05T23:27:07.151Z,46.98
2023-04-05T23:29:09.964Z,46.54
2023-04-05T23:31:12.669Z,46.72
2023-04-05T23:33:15.548Z,47.00
2023-04-05T23:35:18.138Z,47.10
2023-04-05T23:37:22.013Z,47.03
2023-04-05T23:39:27.413Z,47.12
2023-04-05T23:41:29.978Z,46.81
2023-04-05T23:43:33.271Z,47.00
2023-04-05T23:45:35.816Z,46.91
2023-04-05T23:47:38.494Z,46.98
2023-04-05T23:49:41.547Z,47.16
2023-04-05T23:51:44.123Z,47.21
2023-04-05T23:53:48.114Z,47.06
2023-04-05T23:55:53.285Z,47.30
2023-04-05T23:57:57.754Z,47.35
